Florence, South Carolina
Current Conditions -  °F | °C
As of 5:53 AM on Friday 31 Oct 2014 (Local Time) from KFLO Reporting Station
Clear Clear  
Wind Chill: 45°   Ceiling: Unl
Heat Index: 47°   Visibility: 10mi
Dew Point: 44°   Wind: 5mph
Humidity: 90%   Direction: 20°NNE
Pressure: 29.91"   Gusts: NA
Location:  34.19°N, 79.77°W
Report Text: KFLO 310953Z AUTO 02004KT 10SM CLR 08/07 A2991 RMK AO2 SLP126 T00830067
Loading
Personal Weather Stations






























Interactive Weather Map
Tropical Storm Tracking
New forecast layout! Learn more

10-Day Weather Forecast

Advertisements
Track Severe Weather on mobile